createdAt,value
2023-02-28T00:00:07.487Z,-4.17
2023-02-28T00:01:07.385Z,-4.17
2023-02-28T00:02:07.397Z,-4.27
2023-02-28T00:03:07.342Z,-4.27
2023-02-28T00:04:07.210Z,-4.24
2023-02-28T00:05:07.120Z,-4.23
2023-02-28T00:06:07.118Z,-4.24
2023-02-28T00:07:07.029Z,-4.20
2023-02-28T00:08:06.949Z,-4.20
2023-02-28T00:09:06.859Z,-4.24
2023-02-28T00:10:06.820Z,-4.20
2023-02-28T00:11:06.728Z,-4.24
2023-02-28T00:12:06.671Z,-4.18
2023-02-28T00:13:06.613Z,-4.23
2023-02-28T00:14:06.532Z,-4.20
2023-02-28T00:15:06.463Z,-4.27
2023-02-28T00:16:06.462Z,-4.23
2023-02-28T00:17:06.353Z,-4.27
2023-02-28T00:18:06.306Z,-4.24
2023-02-28T00:19:06.215Z,-4.31
2023-02-28T00:20:06.169Z,-4.35
2023-02-28T00:21:06.084Z,-4.28
2023-02-28T00:22:06.013Z,-4.35
2023-02-28T00:23:05.956Z,-4.36
2023-02-28T00:24:05.941Z,-4.44
2023-02-28T00:25:05.815Z,-4.36
2023-02-28T00:26:05.756Z,-4.42
2023-02-28T00:27:05.716Z,-4.48
2023-02-28T00:28:05.641Z,-4.56
2023-02-28T00:29:05.572Z,-4.54
2023-02-28T00:30:05.510Z,-4.56
2023-02-28T00:31:05.504Z,-4.53
2023-02-28T00:32:05.425Z,-4.54
2023-02-28T00:33:05.343Z,-4.49
2023-02-28T00:34:05.263Z,-4.42
2023-02-28T00:35:05.194Z,-4.48
2023-02-28T00:36:05.147Z,-4.46
2023-02-28T00:37:05.074Z,-4.49
2023-02-28T00:38:05.012Z,-4.54
2023-02-28T00:39:05.225Z,-4.60
2023-02-28T00:40:04.908Z,-4.63
2023-02-28T00:41:04.844Z,-4.67
2023-02-28T00:42:04.766Z,-4.67
2023-02-28T00:43:04.707Z,-4.60
2023-02-28T00:44:04.642Z,-4.70
2023-02-28T00:45:04.593Z,-4.66
2023-02-28T00:46:04.570Z,-4.63
2023-02-28T00:47:04.454Z,-4.62
2023-02-28T00:48:04.395Z,-4.63
2023-02-28T00:49:04.324Z,-4.57
2023-02-28T00:50:04.275Z,-4.48
2023-02-28T00:51:04.197Z,-4.44
2023-02-28T00:52:04.137Z,-4.45
2023-02-28T00:53:04.089Z,-4.54
2023-02-28T00:54:04.002Z,-4.56
2023-02-28T00:55:03.975Z,-4.56
2023-02-28T00:56:03.883Z,-4.53
2023-02-28T00:57:03.854Z,-4.54
2023-02-28T00:58:03.775Z,-4.52
2023-02-28T00:59:03.745Z,-4.52
2023-02-28T01:00:03.686Z,-4.46
2023-02-28T01:01:03.705Z,-4.45
2023-02-28T01:02:03.545Z,-4.39
2023-02-28T01:03:03.528Z,-4.41
2023-02-28T01:04:03.417Z,-4.42
2023-02-28T01:05:03.396Z,-4.39
2023-02-28T01:06:03.329Z,-4.44
2023-02-28T01:07:03.265Z,-4.53
2023-02-28T01:08:03.209Z,-4.52
2023-02-28T01:09:03.158Z,-4.56
2023-02-28T01:10:03.115Z,-4.54
2023-02-28T01:11:03.029Z,-4.54
2023-02-28T01:12:02.976Z,-4.46
2023-02-28T01:13:02.917Z,-4.56
2023-02-28T01:14:02.856Z,-4.53
2023-02-28T01:15:02.818Z,-4.53
2023-02-28T01:16:02.767Z,-4.59
2023-02-28T01:17:02.679Z,-4.60
2023-02-28T01:18:02.623Z,-4.66
2023-02-28T01:19:02.558Z,-4.60
2023-02-28T01:20:02.586Z,-4.59
2023-02-28T01:21:02.420Z,-4.57
2023-02-28T01:22:02.397Z,-4.57
2023-02-28T01:23:02.349Z,-4.57
2023-02-28T01:24:02.262Z,-4.59
2023-02-28T01:25:02.307Z,-4.57
2023-02-28T01:26:02.211Z,-4.52
2023-02-28T01:27:02.134Z,-4.53
2023-02-28T01:28:02.082Z,-4.57
2023-02-28T01:29:02.003Z,-4.64
2023-02-28T01:30:01.961Z,-4.62
2023-02-28T01:31:01.939Z,-4.60
2023-02-28T01:32:01.926Z,-4.60
2023-02-28T01:33:01.784Z,-4.67
2023-02-28T01:34:01.719Z,-4.64
2023-02-28T01:35:01.686Z,-4.64
2023-02-28T01:36:01.667Z,-4.70
2023-02-28T01:37:01.541Z,-4.54
2023-02-28T01:38:15.754Z,-4.62
2023-02-28T01:39:02.440Z,-4.66
2023-02-28T01:40:01.386Z,-4.67
2023-02-28T01:41:01.319Z,-4.64
2023-02-28T01:42:01.268Z,-4.70
2023-02-28T01:43:01.207Z,-4.70
2023-02-28T01:44:01.149Z,-4.73
2023-02-28T01:45:01.159Z,-4.70
2023-02-28T01:46:01.106Z,-4.64
2023-02-28T01:47:00.997Z,-4.64
2023-02-28T01:48:00.937Z,-4.67
2023-02-28T01:49:00.892Z,-4.70
2023-02-28T01:50:00.839Z,-4.67
2023-02-28T01:51:00.793Z,-4.71
2023-02-28T01:52:00.698Z,-4.73
2023-02-28T01:53:00.663Z,-4.73
2023-02-28T01:54:00.597Z,-4.78
2023-02-28T01:55:00.567Z,-4.73
2023-02-28T01:56:00.512Z,-4.66
2023-02-28T01:57:00.448Z,-4.75
2023-02-28T01:58:00.406Z,-4.81
2023-02-28T01:59:00.331Z,-4.81
2023-02-28T02:00:00.290Z,-4.81
2023-02-28T02:01:00.237Z,-4.81
2023-02-28T02:02:00.226Z,-4.80
2023-02-28T02:03:00.176Z,-4.77
2023-02-28T02:04:00.061Z,-4.80
2023-02-28T02:05:00.029Z,-4.74
2023-02-28T02:05:59.962Z,-4.85
2023-02-28T02:06:59.888Z,-4.82
2023-02-28T02:07:59.843Z,-4.80
2023-02-28T02:08:59.802Z,-4.80
2023-02-28T02:09:59.747Z,-4.87
2023-02-28T02:10:59.677Z,-4.95
2023-02-28T02:11:59.642Z,-4.95
2023-02-28T02:12:59.593Z,-4.99
2023-02-28T02:13:59.527Z,-4.91
2023-02-28T02:14:59.497Z,-4.98
2023-02-28T02:15:59.451Z,-4.99
2023-02-28T02:16:59.380Z,-4.98
2023-02-28T02:17:59.318Z,-4.99
2023-02-28T02:18:59.259Z,-4.95
2023-02-28T02:19:59.209Z,-4.99
2023-02-28T02:20:59.129Z,-5.03
2023-02-28T02:21:59.091Z,-5.03
2023-02-28T02:22:59.039Z,-5.11
2023-02-28T02:23:58.989Z,-5.10
2023-02-28T02:24:58.969Z,-4.99
2023-02-28T02:25:58.872Z,-5.09
2023-02-28T02:26:58.830Z,-5.14
2023-02-28T02:27:58.790Z,-5.10
2023-02-28T02:28:58.740Z,-5.18
2023-02-28T02:29:58.694Z,-5.24
2023-02-28T02:30:58.675Z,-5.21
2023-02-28T02:31:58.584Z,-5.17
2023-02-28T02:32:58.500Z,-5.20
2023-02-28T02:33:58.474Z,-5.22
2023-02-28T02:34:58.426Z,-5.31
2023-02-28T02:35:58.390Z,-5.21
2023-02-28T02:36:58.289Z,-5.21
2023-02-28T02:37:58.230Z,-5.20
2023-02-28T02:38:58.204Z,-5.24
2023-02-28T02:39:58.122Z,-5.31
2023-02-28T02:40:58.084Z,-5.24
2023-02-28T02:41:57.999Z,-5.32
2023-02-28T02:42:57.981Z,-5.29
2023-02-28T02:43:57.892Z,-5.25
2023-02-28T02:44:57.921Z,-5.28
2023-02-28T02:45:57.784Z,-5.22
2023-02-28T02:46:57.774Z,-5.24
2023-02-28T02:47:57.676Z,-5.25
2023-02-28T02:48:57.602Z,-5.28
2023-02-28T02:49:57.550Z,-5.21
2023-02-28T02:50:57.473Z,-5.20
2023-02-28T02:51:57.473Z,-5.22
2023-02-28T02:52:57.353Z,-5.13
2023-02-28T02:53:57.326Z,-5.07
2023-02-28T02:54:57.271Z,-5.02
2023-02-28T02:55:57.207Z,-4.96
2023-02-28T02:56:57.146Z,-4.84
2023-02-28T02:57:57.091Z,-4.85
2023-02-28T02:58:57.033Z,-4.78
2023-02-28T02:59:57.953Z,-4.77
2023-02-28T03:00:56.968Z,-4.74
2023-02-28T03:01:56.871Z,-4.78
2023-02-28T03:02:56.833Z,-4.66
2023-02-28T03:03:56.797Z,-4.62
2023-02-28T03:04:56.719Z,-4.71
2023-02-28T03:05:56.636Z,-4.59
2023-02-28T03:06:56.598Z,-4.59
2023-02-28T03:07:56.541Z,-4.57
2023-02-28T03:08:56.493Z,-4.54
2023-02-28T03:09:56.443Z,-4.49
2023-02-28T03:10:56.366Z,-4.52
2023-02-28T03:11:56.322Z,-4.46
2023-02-28T03:12:56.252Z,-4.44
2023-02-28T03:13:56.188Z,-4.44
2023-02-28T03:14:56.174Z,-4.42
2023-02-28T03:15:56.091Z,-4.39
2023-02-28T03:16:56.040Z,-4.41
2023-02-28T03:17:55.971Z,-4.36
2023-02-28T03:18:55.923Z,-4.41
2023-02-28T03:19:55.889Z,-4.36
2023-02-28T03:20:55.821Z,-4.27
2023-02-28T03:21:55.756Z,-4.31
2023-02-28T03:22:55.707Z,-4.25
2023-02-28T03:23:55.659Z,-4.28
2023-02-28T03:24:55.627Z,-4.23
2023-02-28T03:25:55.623Z,-4.21
2023-02-28T03:26:55.480Z,-4.25
2023-02-28T03:27:55.424Z,-4.23
2023-02-28T03:28:55.376Z,-4.20
2023-02-28T03:29:55.322Z,-4.23
2023-02-28T03:30:55.241Z,-4.21
2023-02-28T03:31:55.267Z,-4.20
2023-02-28T03:32:55.131Z,-4.20
2023-02-28T03:33:55.062Z,-4.17
2023-02-28T03:34:55.029Z,-4.20
2023-02-28T03:35:54.954Z,-4.21
2023-02-28T03:36:54.908Z,-4.25
2023-02-28T03:37:54.806Z,-4.23
2023-02-28T03:38:54.767Z,-4.24
2023-02-28T03:39:54.704Z,-4.27
2023-02-28T03:40:54.626Z,-4.30
2023-02-28T03:41:54.555Z,-4.23
2023-02-28T03:42:54.511Z,-4.24
2023-02-28T03:43:54.425Z,-4.31
2023-02-28T03:44:54.385Z,-4.31
2023-02-28T03:45:54.325Z,-4.35
2023-02-28T03:46:54.254Z,-4.31
2023-02-28T03:47:54.166Z,-4.38
2023-02-28T03:48:54.106Z,-4.31
2023-02-28T03:49:54.092Z,-4.45
2023-02-28T03:50:54.001Z,-4.49
2023-02-28T03:51:53.928Z,-4.52
2023-02-28T03:52:53.846Z,-4.56
2023-02-28T03:53:53.798Z,-4.53
2023-02-28T03:54:53.737Z,-4.52
2023-02-28T03:55:53.657Z,-4.52
2023-02-28T03:56:53.596Z,-4.45
2023-02-28T03:57:53.522Z,-4.46
2023-02-28T03:58:53.464Z,-4.49
2023-02-28T03:59:53.422Z,-4.49
2023-02-28T04:00:53.340Z,-4.42
2023-02-28T04:01:53.364Z,-4.46
2023-02-28T04:02:53.222Z,-4.44
2023-02-28T04:03:53.146Z,-4.34
2023-02-28T04:04:53.089Z,-4.36
2023-02-28T04:05:53.061Z,-4.39
2023-02-28T04:06:52.915Z,-4.35
2023-02-28T04:07:52.846Z,-4.35
2023-02-28T04:08:52.794Z,-4.41
2023-02-28T04:09:52.717Z,-4.38
2023-02-28T04:10:52.687Z,-4.42
2023-02-28T04:11:52.624Z,-4.38
2023-02-28T04:12:52.533Z,-4.35
2023-02-28T04:13:52.467Z,-4.42
2023-02-28T04:14:52.405Z,-4.36
2023-02-28T04:15:52.441Z,-4.42
2023-02-28T04:16:52.280Z,-4.42
2023-02-28T04:17:52.233Z,-4.41
2023-02-28T04:18:52.159Z,-4.41
2023-02-28T04:19:52.216Z,-4.38
2023-02-28T04:20:52.058Z,-4.44
2023-02-28T04:21:52.749Z,-4.30
2023-02-28T04:22:51.917Z,-4.36
2023-02-28T04:23:51.851Z,-4.41
2023-02-28T04:24:51.799Z,-4.36
2023-02-28T04:25:51.759Z,-4.31
2023-02-28T04:26:51.678Z,-4.39
2023-02-28T04:27:51.597Z,-4.31
2023-02-28T04:28:51.531Z,-4.28
2023-02-28T04:29:51.470Z,-4.34
2023-02-28T04:30:51.431Z,-4.21
2023-02-28T04:31:51.585Z,-4.27
2023-02-28T04:32:51.298Z,-4.21
2023-02-28T04:33:51.247Z,-4.21
2023-02-28T04:34:51.160Z,-4.28
2023-02-28T04:35:51.217Z,-4.17
2023-02-28T04:36:56.930Z,-4.17
2023-02-28T04:37:51.980Z,-4.17
2023-02-28T04:38:50.922Z,-4.18
2023-02-28T04:39:50.865Z,-4.12
2023-02-28T04:40:50.794Z,-4.14
2023-02-28T04:41:50.722Z,-4.15
2023-02-28T04:42:50.661Z,-4.05
2023-02-28T04:43:50.610Z,-4.07
2023-02-28T04:44:50.525Z,-4.09
2023-02-28T04:45:50.517Z,-3.99
2023-02-28T04:46:50.391Z,-4.03
2023-02-28T04:47:50.319Z,-4.02
2023-02-28T04:48:50.252Z,-4.05
2023-02-28T04:49:50.191Z,-4.02
2023-02-28T04:50:50.148Z,-4.02
2023-02-28T04:51:50.073Z,-4.03
2023-02-28T04:52:50.016Z,-3.97
2023-02-28T04:53:49.972Z,-4.05
2023-02-28T04:54:49.858Z,-3.94
2023-02-28T04:55:49.820Z,-4.00
2023-02-28T04:56:49.751Z,-3.97
2023-02-28T04:57:49.659Z,-4.06
2023-02-28T04:58:49.598Z,-3.94
2023-02-28T04:59:49.550Z,-3.97
2023-02-28T05:00:49.504Z,-3.97
2023-02-28T05:01:49.405Z,-3.94
2023-02-28T05:02:49.329Z,-3.89
2023-02-28T05:03:49.270Z,-3.96
2023-02-28T05:04:49.290Z,-3.99
2023-02-28T05:05:49.158Z,-3.94
2023-02-28T05:06:49.088Z,-3.99
2023-02-28T05:07:49.022Z,-3.97
2023-02-28T05:08:48.941Z,-3.94
2023-02-28T05:09:48.899Z,-3.99
2023-02-28T05:10:48.851Z,-3.91
2023-02-28T05:11:48.763Z,-3.91
2023-02-28T05:12:48.679Z,-3.91
2023-02-28T05:13:48.643Z,-3.91
2023-02-28T05:14:48.615Z,-3.89
2023-02-28T05:15:48.541Z,-3.88
2023-02-28T05:16:48.411Z,-3.84
2023-02-28T05:17:48.376Z,-3.87
2023-02-28T05:18:48.363Z,-3.89
2023-02-28T05:19:48.233Z,-3.88
2023-02-28T05:20:48.164Z,-3.87
2023-02-28T05:21:48.079Z,-3.92
2023-02-28T05:22:48.021Z,-3.85
2023-02-28T05:23:48.242Z,-3.94
2023-02-28T05:24:47.871Z,-3.97
2023-02-28T05:25:47.808Z,-4.05
2023-02-28T05:26:47.729Z,-3.97
2023-02-28T05:27:47.664Z,-4.02
2023-02-28T05:28:47.596Z,-4.03
2023-02-28T05:29:47.544Z,-3.94
2023-02-28T05:30:47.479Z,-4.02
2023-02-28T05:31:47.532Z,-3.96
2023-02-28T05:32:47.322Z,-3.99
2023-02-28T05:33:47.253Z,-3.97
2023-02-28T05:34:47.165Z,-4.03
2023-02-28T05:35:47.216Z,-3.97
2023-02-28T05:36:47.036Z,-4.07
2023-02-28T05:37:46.962Z,-4.00
2023-02-28T05:38:46.894Z,-4.02
2023-02-28T05:39:46.825Z,-4.06
2023-02-28T05:40:46.763Z,-4.05
2023-02-28T05:41:46.732Z,-4.03
2023-02-28T05:42:46.599Z,-4.09
2023-02-28T05:43:46.547Z,-4.06
2023-02-28T05:44:46.478Z,-4.07
2023-02-28T05:45:46.487Z,-4.03
2023-02-28T05:46:46.356Z,-4.05
2023-02-28T05:47:46.275Z,-4.03
2023-02-28T05:48:46.225Z,-3.99
2023-02-28T05:49:46.483Z,-4.02
2023-02-28T05:50:46.092Z,-4.00
2023-02-28T05:51:46.018Z,-3.96
2023-02-28T05:52:45.937Z,-4.00
2023-02-28T05:53:45.886Z,-4.05
2023-02-28T05:54:45.807Z,-4.05
2023-02-28T05:55:45.766Z,-4.03
2023-02-28T05:56:45.678Z,-4.14
2023-02-28T05:57:45.624Z,-4.12
2023-02-28T05:58:46.126Z,-4.17
2023-02-28T05:59:46.252Z,-4.21
2023-02-28T06:00:45.387Z,-4.24
2023-02-28T06:01:45.344Z,-4.17
2023-02-28T06:02:45.260Z,-4.23
2023-02-28T06:03:45.250Z,-4.18
2023-02-28T06:04:45.140Z,-4.21
2023-02-28T06:05:45.076Z,-4.15
2023-02-28T06:06:44.980Z,-4.12
2023-02-28T06:07:44.928Z,-4.21
2023-02-28T06:08:44.858Z,-4.21
2023-02-28T06:09:44.818Z,-4.21
2023-02-28T06:10:44.722Z,-4.18
2023-02-28T06:11:44.671Z,-4.20
2023-02-28T06:12:44.588Z,-4.15
2023-02-28T06:13:44.506Z,-4.14
2023-02-28T06:14:44.429Z,-4.09
2023-02-28T06:15:44.400Z,-4.06
2023-02-28T06:16:44.357Z,-4.03
2023-02-28T06:17:44.230Z,-4.03
2023-02-28T06:18:44.166Z,-4.03
2023-02-28T06:19:44.154Z,-4.03
2023-02-28T06:20:44.066Z,-4.03
2023-02-28T06:21:43.971Z,-3.94
2023-02-28T06:22:43.895Z,-3.89
2023-02-28T06:23:43.835Z,-3.88
2023-02-28T06:24:43.790Z,-3.87
2023-02-28T06:25:43.714Z,-3.87
2023-02-28T06:26:43.613Z,-3.82
2023-02-28T06:27:43.554Z,-3.81
2023-02-28T06:28:43.510Z,-3.82
2023-02-28T06:29:43.424Z,-3.85
2023-02-28T06:30:45.585Z,-3.82
2023-02-28T06:31:43.337Z,-3.79
2023-02-28T06:32:43.209Z,-3.74
2023-02-28T06:33:43.159Z,-3.72
2023-02-28T06:34:43.075Z,-3.72
2023-02-28T06:35:43.058Z,-3.67
2023-02-28T06:36:42.934Z,-3.67
2023-02-28T06:37:42.860Z,-3.67
2023-02-28T06:38:42.778Z,-3.65
2023-02-28T06:39:42.697Z,-3.60
2023-02-28T06:40:42.658Z,-3.60
2023-02-28T06:41:54.269Z,-3.59
2023-02-28T06:42:43.475Z,-3.54
2023-02-28T06:43:42.413Z,-3.54
2023-02-28T06:44:42.328Z,-3.52
2023-02-28T06:45:42.288Z,-3.49
2023-02-28T06:46:42.179Z,-3.42
2023-02-28T06:47:42.125Z,-3.42
2023-02-28T06:48:42.052Z,-3.45
2023-02-28T06:49:41.979Z,-3.38
2023-02-28T06:50:41.910Z,-3.36
2023-02-28T06:51:41.830Z,-3.29
2023-02-28T06:52:41.750Z,-3.26
2023-02-28T06:53:41.699Z,-3.24
2023-02-28T06:54:41.600Z,-3.21
2023-02-28T06:55:41.551Z,-3.26
2023-02-28T06:56:41.438Z,-3.10
2023-02-28T06:57:41.380Z,-3.12
2023-02-28T06:58:41.312Z,-3.13
2023-02-28T06:59:41.211Z,-3.05
2023-02-28T07:00:41.166Z,-3.08
2023-02-28T07:01:41.103Z,-3.03
2023-02-28T07:02:40.982Z,-2.94
2023-02-28T07:03:40.933Z,-2.95
2023-02-28T07:04:40.906Z,-2.94
2023-02-28T07:05:40.777Z,-2.97
2023-02-28T07:06:40.677Z,-2.91
2023-02-28T07:07:40.635Z,-2.92
2023-02-28T07:08:40.530Z,-2.90
2023-02-28T07:09:40.459Z,-2.91
2023-02-28T07:10:40.378Z,-2.87
2023-02-28T07:11:40.325Z,-2.82
2023-02-28T07:12:40.222Z,-2.79
2023-02-28T07:13:40.147Z,-2.87
2023-02-28T07:14:40.085Z,-2.72
2023-02-28T07:15:43.004Z,-2.74
2023-02-28T07:16:39.901Z,-2.76
2023-02-28T07:17:39.852Z,-2.67
2023-02-28T07:18:39.944Z,-2.66
2023-02-28T07:19:39.858Z,-2.63
2023-02-28T07:20:39.639Z,-2.66
2023-02-28T07:21:39.537Z,-2.58
2023-02-28T07:22:39.468Z,-2.59
2023-02-28T07:23:39.365Z,-2.56
2023-02-28T07:24:39.292Z,-2.56
2023-02-28T07:25:39.586Z,-2.49
2023-02-28T07:26:39.703Z,-2.45
2023-02-28T07:27:39.057Z,-2.49
2023-02-28T07:28:38.970Z,-2.55
2023-02-28T07:29:38.890Z,-2.49
2023-02-28T07:30:38.806Z,-2.37
2023-02-28T07:31:38.780Z,-2.46
2023-02-28T07:32:38.638Z,-2.43
2023-02-28T07:33:38.576Z,-2.38
2023-02-28T07:34:38.438Z,-2.37
2023-02-28T07:35:38.432Z,-2.33
2023-02-28T07:36:38.267Z,-2.30
2023-02-28T07:37:38.202Z,-2.26
2023-02-28T07:38:38.113Z,-2.26
2023-02-28T07:39:38.060Z,-2.27
2023-02-28T07:40:37.955Z,-2.19
2023-02-28T07:41:37.862Z,-2.24
2023-02-28T07:42:37.800Z,-2.15
2023-02-28T07:43:37.701Z,-2.09
2023-02-28T07:44:37.634Z,-2.16
2023-02-28T07:45:37.555Z,-2.03
2023-02-28T07:46:37.776Z,-2.01
2023-02-28T07:47:37.441Z,-1.98
2023-02-28T07:48:37.274Z,-1.98
2023-02-28T07:49:37.202Z,-1.91
2023-02-28T07:50:37.120Z,-1.88
2023-02-28T07:51:37.034Z,-1.90
2023-02-28T07:52:36.938Z,-2.00
2023-02-28T07:53:36.942Z,-1.97
2023-02-28T07:54:36.749Z,-2.01
2023-02-28T07:55:36.690Z,-1.97
2023-02-28T07:56:36.582Z,-1.94
2023-02-28T07:57:37.282Z,-2.01
2023-02-28T07:58:36.427Z,-2.00
2023-02-28T07:59:36.331Z,-2.00
2023-02-28T08:00:36.263Z,-1.96
2023-02-28T08:01:36.196Z,-1.93
2023-02-28T08:02:36.079Z,-1.86
2023-02-28T08:03:35.993Z,-1.76
2023-02-28T08:04:35.923Z,-1.83
2023-02-28T08:05:35.832Z,-1.90
2023-02-28T08:06:35.717Z,-1.83
2023-02-28T08:07:35.641Z,-1.78
2023-02-28T08:08:35.551Z,-1.70
2023-02-28T08:09:35.464Z,-1.58
2023-02-28T08:10:35.374Z,-1.70
2023-02-28T08:11:35.274Z,-1.64
2023-02-28T08:12:35.160Z,-1.54
2023-02-28T08:13:35.073Z,-1.57
2023-02-28T08:14:34.965Z,-1.57
2023-02-28T08:15:34.882Z,-1.46
2023-02-28T08:16:34.839Z,-1.57
2023-02-28T08:17:35.472Z,-1.57
2023-02-28T08:18:34.561Z,-1.47
2023-02-28T08:19:34.474Z,-1.40
2023-02-28T08:20:34.426Z,-1.52
2023-02-28T08:21:34.289Z,-1.49
2023-02-28T08:22:34.328Z,-1.67
2023-02-28T08:23:34.163Z,-1.78
2023-02-28T08:24:33.971Z,-1.70
2023-02-28T08:25:33.894Z,-1.62
2023-02-28T08:26:33.760Z,-1.46
2023-02-28T08:27:33.673Z,-1.31
2023-02-28T08:28:33.607Z,-1.23
2023-02-28T08:29:33.469Z,-1.18
2023-02-28T08:30:33.374Z,-1.15
2023-02-28T08:31:33.387Z,-1.13
2023-02-28T08:32:33.266Z,-1.16
2023-02-28T08:33:33.092Z,-1.18
2023-02-28T08:34:32.997Z,-1.19
2023-02-28T08:35:32.918Z,-1.23
2023-02-28T08:36:32.847Z,-1.26
2023-02-28T08:37:32.716Z,-1.21
2023-02-28T08:38:32.616Z,-1.22
2023-02-28T08:39:32.514Z,-1.25
2023-02-28T08:40:32.431Z,-1.21
2023-02-28T08:41:32.315Z,-1.23
2023-02-28T08:42:32.228Z,-1.36
2023-02-28T08:43:32.125Z,-1.36
2023-02-28T08:44:32.026Z,-1.33
2023-02-28T08:45:31.946Z,-1.41
2023-02-28T08:46:31.837Z,-1.41
2023-02-28T08:47:31.773Z,-1.47
2023-02-28T08:48:31.613Z,-1.46
2023-02-28T08:49:31.546Z,-1.43
2023-02-28T08:50:31.423Z,-1.46
2023-02-28T08:51:31.610Z,-1.39
2023-02-28T08:52:31.218Z,-1.33
2023-02-28T08:53:31.133Z,-1.29
2023-02-28T08:54:31.034Z,-1.22
2023-02-28T08:55:30.960Z,-1.25
2023-02-28T08:56:30.827Z,-1.33
2023-02-28T08:57:30.714Z,-1.37
2023-02-28T08:58:30.625Z,-1.39
2023-02-28T08:59:30.515Z,-1.39
2023-02-28T09:00:30.452Z,-1.40
2023-02-28T09:01:30.730Z,-1.39
2023-02-28T09:02:30.253Z,-1.33
2023-02-28T09:03:30.142Z,-1.11
2023-02-28T09:04:30.065Z,-1.10
2023-02-28T09:05:29.974Z,-1.04
2023-02-28T09:06:30.140Z,-1.04
2023-02-28T09:07:29.762Z,-1.07
2023-02-28T09:08:29.675Z,-1.11
2023-02-28T09:09:29.573Z,-1.25
2023-02-28T09:10:29.479Z,-1.22
2023-02-28T09:11:29.397Z,-1.22
2023-02-28T09:12:29.265Z,-1.23
2023-02-28T09:13:29.165Z,-1.25
2023-02-28T09:14:29.074Z,-1.18
2023-02-28T09:15:28.997Z,-1.34
2023-02-28T09:16:28.929Z,-1.44
2023-02-28T09:17:30.887Z,-1.49
2023-02-28T09:18:28.709Z,-1.44
2023-02-28T09:19:28.587Z,-1.51
2023-02-28T09:20:28.516Z,-1.51
2023-02-28T09:21:29.017Z,-1.43
2023-02-28T09:22:28.295Z,-1.44
2023-02-28T09:23:28.186Z,-1.36
2023-02-28T09:24:28.103Z,-1.11
2023-02-28T09:25:28.022Z,-0.98
2023-02-28T09:26:32.533Z,-0.73
2023-02-28T09:27:28.847Z,-0.75
2023-02-28T09:28:27.746Z,-0.73
2023-02-28T09:29:27.648Z,-0.68
2023-02-28T09:30:27.631Z,-0.81
2023-02-28T09:31:27.445Z,-0.90
2023-02-28T09:32:27.452Z,-0.86
2023-02-28T09:33:27.269Z,-0.86
2023-02-28T09:34:27.196Z,-0.85
2023-02-28T09:35:27.078Z,-0.82
2023-02-28T09:36:37.732Z,-0.78
2023-02-28T09:37:27.877Z,-0.75
2023-02-28T09:38:26.782Z,-0.70
2023-02-28T09:39:26.673Z,-0.76
2023-02-28T09:40:26.606Z,-0.86
2023-02-28T09:41:26.485Z,-0.86
2023-02-28T09:42:26.401Z,-0.79
2023-02-28T09:43:26.295Z,-0.82
2023-02-28T09:44:26.199Z,-0.86
2023-02-28T09:45:26.084Z,-0.75
2023-02-28T09:46:26.072Z,-0.76
2023-02-28T09:47:25.889Z,-0.70
2023-02-28T09:48:25.793Z,-0.75
2023-02-28T09:49:25.671Z,-0.78
2023-02-28T09:50:25.601Z,-0.89
2023-02-28T09:51:25.495Z,-0.82
2023-02-28T09:52:25.387Z,-0.85
2023-02-28T09:53:25.283Z,-0.84
2023-02-28T09:54:25.203Z,-0.75
2023-02-28T09:55:26.347Z,-0.76
2023-02-28T09:56:24.985Z,-0.81
2023-02-28T09:57:24.908Z,-0.68
2023-02-28T09:58:24.873Z,-0.68
2023-02-28T09:59:24.705Z,-0.66
2023-02-28T10:00:24.637Z,-0.70
2023-02-28T10:01:24.557Z,-0.68
2023-02-28T10:02:24.428Z,-0.76
2023-02-28T10:03:24.340Z,-0.81
2023-02-28T10:04:24.262Z,-0.84
2023-02-28T10:05:24.126Z,-0.82
2023-02-28T10:06:24.019Z,-0.79
2023-02-28T10:07:23.916Z,-0.82
2023-02-28T10:08:23.824Z,-0.86
2023-02-28T10:09:23.751Z,-0.85
2023-02-28T10:10:23.650Z,-0.82
2023-02-28T10:11:23.522Z,-0.82
2023-02-28T10:12:23.421Z,-0.82
2023-02-28T10:13:23.319Z,-0.81
2023-02-28T10:14:23.231Z,-0.79
2023-02-28T10:15:23.129Z,-0.63
2023-02-28T10:16:23.056Z,-0.60
2023-02-28T10:17:22.916Z,-0.63
2023-02-28T10:18:23.774Z,-0.61
2023-02-28T10:19:22.725Z,-0.52
2023-02-28T10:20:22.633Z,-0.52
2023-02-28T10:21:22.491Z,-0.43
2023-02-28T10:22:22.409Z,-0.39
2023-02-28T10:23:22.325Z,-0.34
2023-02-28T10:24:22.194Z,-0.31
2023-02-28T10:25:22.109Z,-0.35
2023-02-28T10:26:21.982Z,-0.28
2023-02-28T10:27:21.879Z,-0.17
2023-02-28T10:28:21.783Z,-0.16
2023-02-28T10:29:21.663Z,-0.14
2023-02-28T10:30:21.612Z,-0.14
2023-02-28T10:31:21.489Z,-0.11
2023-02-28T10:32:21.386Z,-0.14
2023-02-28T10:33:21.299Z,-0.20
2023-02-28T10:34:21.138Z,-0.09
2023-02-28T10:35:21.064Z,-0.10
2023-02-28T10:36:21.022Z,-0.01
2023-02-28T10:37:20.836Z,-0.07
2023-02-28T10:38:20.760Z,0.00
2023-02-28T10:39:20.624Z,0.12
2023-02-28T10:40:20.592Z,0.20
2023-02-28T10:41:20.419Z,0.36
2023-02-28T10:42:20.294Z,0.41
2023-02-28T10:43:20.197Z,0.48
2023-02-28T10:44:20.098Z,0.62
2023-02-28T10:45:19.982Z,0.53
2023-02-28T10:46:19.906Z,0.33
2023-02-28T10:47:19.724Z,0.25
2023-02-28T10:48:19.642Z,0.11
2023-02-28T10:49:19.523Z,-0.01
2023-02-28T10:50:19.492Z,-0.06
2023-02-28T10:51:19.305Z,-0.04
2023-02-28T10:52:19.184Z,-0.03
2023-02-28T10:53:19.084Z,0.08
2023-02-28T10:54:18.987Z,0.32
2023-02-28T10:55:18.880Z,0.53
2023-02-28T10:56:18.783Z,0.62
2023-02-28T10:57:18.660Z,0.69
2023-02-28T10:58:18.516Z,0.87
2023-02-28T10:59:18.404Z,0.90
2023-02-28T11:00:18.368Z,0.84
2023-02-28T11:01:18.217Z,0.88
2023-02-28T11:02:18.053Z,0.87
2023-02-28T11:03:17.939Z,0.90
2023-02-28T11:04:17.879Z,0.94
2023-02-28T11:05:17.723Z,0.91
2023-02-28T11:06:17.606Z,0.98
2023-02-28T11:07:17.918Z,0.94
2023-02-28T11:08:17.404Z,0.88
2023-02-28T11:09:17.255Z,0.94
2023-02-28T11:10:17.143Z,0.88
2023-02-28T11:11:16.990Z,0.96
2023-02-28T11:12:16.874Z,0.76
2023-02-28T11:13:16.748Z,0.72
2023-02-28T11:14:16.662Z,0.64
2023-02-28T11:15:16.553Z,0.64
2023-02-28T11:16:16.434Z,0.59
2023-02-28T11:17:16.264Z,0.51
2023-02-28T11:18:16.611Z,0.50
2023-02-28T11:19:16.037Z,0.37
2023-02-28T11:20:15.937Z,0.30
2023-02-28T11:21:15.791Z,0.30
2023-02-28T11:22:15.703Z,0.27
2023-02-28T11:23:15.574Z,0.23
2023-02-28T11:24:15.462Z,0.25
2023-02-28T11:25:15.394Z,0.23
2023-02-28T11:26:15.228Z,0.17
2023-02-28T11:27:15.112Z,0.20
2023-02-28T11:28:15.030Z,0.20
2023-02-28T11:29:14.874Z,0.23
2023-02-28T11:30:14.794Z,0.20
2023-02-28T11:31:14.723Z,0.20
2023-02-28T11:32:14.710Z,0.30
2023-02-28T11:33:14.421Z,0.33
2023-02-28T11:34:14.304Z,0.41
2023-02-28T11:35:14.191Z,0.50
2023-02-28T11:36:14.160Z,0.51
2023-02-28T11:37:13.966Z,0.63
2023-02-28T11:38:13.850Z,0.78
2023-02-28T11:39:13.731Z,0.91
2023-02-28T11:40:13.625Z,0.99
2023-02-28T11:41:13.518Z,1.12
2023-02-28T11:42:13.421Z,1.26
2023-02-28T11:43:13.280Z,1.28
2023-02-28T11:44:13.180Z,1.23
2023-02-28T11:45:13.105Z,1.12
2023-02-28T11:46:12.996Z,1.12
2023-02-28T11:47:12.868Z,1.06
2023-02-28T11:48:12.732Z,1.08
2023-02-28T11:49:12.618Z,1.00
2023-02-28T11:50:12.515Z,0.96
2023-02-28T11:51:12.386Z,1.06
2023-02-28T11:52:12.317Z,1.09
2023-02-28T11:53:12.166Z,1.13
2023-02-28T11:54:12.039Z,1.20
2023-02-28T11:55:11.919Z,1.13
2023-02-28T11:56:11.807Z,1.09
2023-02-28T11:57:11.728Z,1.08
2023-02-28T11:58:11.570Z,1.10
2023-02-28T11:59:11.457Z,1.06
2023-02-28T12:00:11.338Z,1.12
2023-02-28T12:01:11.232Z,1.13
2023-02-28T12:02:11.149Z,1.13
2023-02-28T12:03:10.989Z,1.17
2023-02-28T12:04:10.869Z,1.17
2023-02-28T12:05:10.749Z,1.24
2023-02-28T12:06:10.647Z,1.23
2023-02-28T12:07:10.524Z,1.13
2023-02-28T12:08:10.437Z,1.06
2023-02-28T12:09:10.344Z,1.06
2023-02-28T12:10:10.210Z,1.05
2023-02-28T12:11:10.090Z,1.03
2023-02-28T12:12:10.014Z,1.02
2023-02-28T12:13:09.887Z,0.99
2023-02-28T12:14:09.811Z,1.08
2023-02-28T12:15:09.841Z,1.03
2023-02-28T12:16:09.581Z,1.09
2023-02-28T12:17:09.436Z,1.10
2023-02-28T12:18:09.358Z,1.17
2023-02-28T12:19:09.258Z,1.17
2023-02-28T12:20:09.106Z,1.13
2023-02-28T12:21:08.994Z,1.17
2023-02-28T12:22:08.891Z,1.10
2023-02-28T12:23:08.757Z,1.12
2023-02-28T12:24:08.679Z,1.10
2023-02-28T12:25:08.568Z,1.16
2023-02-28T12:26:08.438Z,1.18
2023-02-28T12:27:08.325Z,1.21
2023-02-28T12:28:08.238Z,1.20
2023-02-28T12:29:08.133Z,1.18
2023-02-28T12:30:08.001Z,1.30
2023-02-28T12:31:07.880Z,1.34
2023-02-28T12:32:07.899Z,1.35
2023-02-28T12:33:07.687Z,1.24
2023-02-28T12:34:07.560Z,1.23
2023-02-28T12:35:07.468Z,1.21
2023-02-28T12:36:07.333Z,1.18
2023-02-28T12:37:07.234Z,1.27
2023-02-28T12:38:07.100Z,1.31
2023-02-28T12:39:06.993Z,1.38
2023-02-28T12:40:06.929Z,1.34
2023-02-28T12:41:06.792Z,1.36
2023-02-28T12:42:06.687Z,1.36
2023-02-28T12:43:06.592Z,1.35
2023-02-28T12:44:06.444Z,1.35
2023-02-28T12:45:06.345Z,1.34
2023-02-28T12:46:06.300Z,1.26
2023-02-28T12:47:06.117Z,1.27
2023-02-28T12:48:05.991Z,1.23
2023-02-28T12:49:05.901Z,1.27
2023-02-28T12:50:05.777Z,1.20
2023-02-28T12:51:05.665Z,1.30
2023-02-28T12:52:05.554Z,1.38
2023-02-28T12:53:05.450Z,1.36
2023-02-28T12:54:05.345Z,1.42
2023-02-28T12:55:05.199Z,1.49
2023-02-28T12:56:05.085Z,1.48